Time;durP1;ratioP1;P1;durP2;ratioP2;P2;SDS_P1;SDS_P2;PMS_P1;PMS_P2;Temp;Humidity;BMP_temperature;BMP_pressure;BME280_temperature;BME280_humidity;BME280_pressure;Samples;Min_cycle;Max_cycle;Signal;HPM_P1;HPM_P2
2023/06/21 00:00:15;;;;;;;21.48;9.95;;;;;;;17.93;100.00;101045.56;5105321;28;20008;-76
2023/06/21 00:02:44;;;;;;;22.73;11.10;;;;;;;17.94;100.00;101052.72;5099641;28;20064;-76
2023/06/21 00:05:10;;;;;;;27.55;12.77;;;;;;;17.97;100.00;101054.28;5088983;28;20139;-76
2023/06/21 00:07:37;;;;;;;23.95;11.13;;;;;;;17.93;100.00;101042.00;5099140;28;20092;-76
2023/06/21 00:10:02;;;;;;;20.90;10.65;;;;;;;17.91;100.00;101046.75;5087270;28;20039;-75
2023/06/21 00:12:28;;;;;;;21.77;11.60;;;;;;;17.91;100.00;101053.03;5081440;28;20549;-76
2023/06/21 00:14:53;;;;;;;22.17;11.32;;;;;;;17.91;100.00;101065.78;5101417;28;20032;-76
2023/06/21 00:17:19;;;;;;;21.65;11.23;;;;;;;17.92;100.00;101065.63;5106541;28;20031;-75
2023/06/21 00:19:44;;;;;;;22.45;11.02;;;;;;;17.92;100.00;101070.19;5099337;28;20028;-76
2023/06/21 00:22:10;;;;;;;22.85;10.85;;;;;;;17.90;100.00;101064.06;5085855;28;20024;-76
2023/06/21 00:24:36;;;;;;;23.40;11.35;;;;;;;17.89;100.00;101075.91;5083357;28;20039;-76
2023/06/21 00:27:01;;;;;;;22.63;11.95;;;;;;;17.88;100.00;101066.91;5080919;28;20052;-76
2023/06/21 00:29:27;;;;;;;22.60;11.80;;;;;;;17.87;100.00;101065.19;5087523;28;20016;-75
2023/06/21 00:31:52;;;;;;;23.17;11.80;;;;;;;17.86;100.00;101054.47;5101945;28;20022;-75
2023/06/21 00:34:17;;;;;;;23.83;12.13;;;;;;;17.86;100.00;101054.47;5092689;28;20096;-76
2023/06/21 00:36:43;;;;;;;23.42;11.93;;;;;;;17.86;100.00;101057.19;5076413;28;20028;-75
2023/06/21 00:39:09;;;;;;;23.52;11.98;;;;;;;17.82;100.00;101060.22;5106413;28;20028;-75
2023/06/21 00:41:35;;;;;;;26.75;11.65;;;;;;;17.85;100.00;101069.06;5096505;28;20020;-76
2023/06/21 00:44:00;;;;;;;23.98;12.27;;;;;;;17.80;100.00;101064.97;5108828;28;20012;-75
2023/06/21 00:46:26;;;;;;;23.88;11.57;;;;;;;17.80;100.00;101067.69;5083206;28;20076;-75
2023/06/21 00:48:51;;;;;;;23.92;12.15;;;;;;;17.78;100.00;101064.25;5087942;28;20035;-76
2023/06/21 00:51:16;;;;;;;22.00;11.63;;;;;;;17.78;100.00;101069.69;5083575;28;20020;-76
2023/06/21 00:53:42;;;;;;;25.95;12.27;;;;;;;17.77;100.00;101069.84;5109388;28;20043;-76
2023/06/21 00:56:08;;;;;;;22.38;12.68;;;;;;;17.78;100.00;101072.41;5097195;28;20024;-76
2023/06/21 00:58:33;;;;;;;23.75;11.43;;;;;;;17.76;100.00;101074.44;5086668;28;20043;-76
2023/06/21 01:00:59;;;;;;;26.15;12.55;;;;;;;17.76;100.00;101073.56;5084715;28;20070;-76
2023/06/21 01:03:26;;;;;;;23.98;12.77;;;;;;;17.75;100.00;101074.59;5087110;28;20044;-76
2023/06/21 01:06:22;;;;;;;23.60;11.55;;;;;;;17.75;100.00;101072.72;5102800;28;20028;-76
2023/06/21 01:09:07;;;;;;;23.42;11.90;;;;;;;17.74;100.00;101072.88;5101739;28;20056;-76
2023/06/21 01:11:52;;;;;;;22.63;11.95;;;;;;;17.73;100.00;101077.47;5092529;28;20035;-75
2023/06/21 01:14:34;;;;;;;23.27;11.38;;;;;;;17.73;100.00;101079.31;5098493;28;20159;-76
2023/06/21 01:17:03;;;;;;;22.38;10.88;;;;;;;17.72;100.00;101075.75;5105887;28;20146;-76
2023/06/21 01:19:37;;;;;;;20.75;11.05;;;;;;;17.71;100.00;101071.31;5093917;28;20036;-76
2023/06/21 01:22:23;;;;;;;27.15;11.10;;;;;;;17.68;100.00;101079.78;5075774;28;20040;-76
2023/06/21 01:25:14;;;;;;;23.13;12.20;;;;;;;17.67;100.00;101083.50;5091540;28;20088;-76
2023/06/21 01:27:59;;;;;;;22.23;11.00;;;;;;;17.63;100.00;101082.97;5067606;28;20044;-76
2023/06/21 01:30:28;;;;;;;23.20;11.05;;;;;;;17.59;100.00;101087.00;5095739;28;20402;-76
2023/06/21 01:32:56;;;;;;;22.95;11.75;;;;;;;17.57;100.00;101088.13;5082065;28;20033;-76
2023/06/21 01:35:22;;;;;;;22.58;11.25;;;;;;;17.52;100.00;101090.47;5100525;28;20466;-76
2023/06/21 01:37:51;;;;;;;22.52;11.68;;;;;;;17.46;100.00;101090.06;5093492;28;20255;-76
2023/06/21 01:40:16;;;;;;;22.73;11.60;;;;;;;17.47;100.00;101094.50;5098163;28;20055;-76
2023/06/21 01:42:44;;;;;;;22.88;11.10;;;;;;;17.47;100.00;101099.09;5092635;28;20038;-76
2023/06/21 01:45:10;;;;;;;22.52;10.90;;;;;;;17.45;100.00;101096.53;5082911;28;20023;-75
2023/06/21 01:47:36;;;;;;;23.52;10.90;;;;;;;17.44;100.00;101089.38;5100666;28;20049;-76
2023/06/21 01:50:05;;;;;;;21.58;11.48;;;;;;;17.41;100.00;101088.81;5090773;28;20028;-76
2023/06/21 01:52:32;;;;;;;23.40;12.18;;;;;;;17.40;100.00;101092.56;5090534;28;20177;-75
2023/06/21 01:54:57;;;;;;;22.58;10.88;;;;;;;17.38;100.00;101095.41;5093505;28;20081;-76
2023/06/21 01:57:25;;;;;;;23.23;11.25;;;;;;;17.35;100.00;101098.44;5097984;28;20025;-76
2023/06/21 01:59:50;;;;;;;23.25;12.00;;;;;;;17.34;100.00;101110.31;5104733;28;20515;-76
2023/06/21 02:02:18;;;;;;;23.45;11.98;;;;;;;17.32;100.00;101100.59;5076763;28;20046;-76
2023/06/21 02:04:46;;;;;;;25.80;12.85;;;;;;;17.32;100.00;101103.31;5092046;28;20056;-76
2023/06/21 02:07:13;;;;;;;22.13;11.82;;;;;;;17.30;100.00;101109.72;5084122;28;20058;-75
2023/06/21 02:09:40;;;;;;;23.65;13.07;;;;;;;17.32;100.00;101111.44;5090543;28;20032;-76
2023/06/21 02:12:06;;;;;;;22.05;11.75;;;;;;;17.32;100.00;101108.72;5092683;28;20092;-76
2023/06/21 02:14:31;;;;;;;25.45;13.60;;;;;;;17.29;100.00;101112.59;5096078;28;20068;-76
2023/06/21 02:16:57;;;;;;;23.15;12.18;;;;;;;17.26;100.00;101105.63;5101926;28;20039;-76
2023/06/21 02:19:24;;;;;;;22.95;11.50;;;;;;;17.22;100.00;101117.78;5072710;28;20031;-76
2023/06/21 02:21:50;;;;;;;23.90;12.90;;;;;;;17.20;100.00;101124.38;5073678;28;20028;-75
2023/06/21 02:24:16;;;;;;;28.55;12.68;;;;;;;17.16;100.00;101123.84;5097778;28;20030;-76
2023/06/21 02:26:41;;;;;;;23.50;12.95;;;;;;;17.15;100.00;101126.69;5081838;28;20045;-76
2023/06/21 02:29:08;;;;;;;24.05;12.68;;;;;;;17.16;100.00;101128.38;5074817;28;20040;-76
2023/06/21 02:31:33;;;;;;;25.10;12.65;;;;;;;17.14;100.00;101131.25;5086390;28;20101;-76
2023/06/21 02:33:59;;;;;;;22.40;12.15;;;;;;;17.14;100.00;101130.41;5069591;28;20032;-76
2023/06/21 02:36:24;;;;;;;24.17;14.25;;;;;;;17.12;100.00;101136.84;5091878;28;20035;-76
2023/06/21 02:38:49;;;;;;;23.08;12.13;;;;;;;17.12;100.00;101152.28;5082278;28;20051;-76
2023/06/21 02:41:15;;;;;;;23.73;13.25;;;;;;;17.14;100.00;101144.00;5069056;28;20031;-76
2023/06/21 02:43:40;;;;;;;26.25;13.38;;;;;;;17.15;100.00;101143.00;5102808;28;20442;-75
2023/06/21 02:46:05;;;;;;;23.90;13.07;;;;;;;17.15;100.00;101154.69;5077738;28;20038;-76
2023/06/21 02:48:31;;;;;;;24.02;13.55;;;;;;;17.18;100.00;101153.56;5077457;28;20092;-76
2023/06/21 02:50:56;;;;;;;25.10;13.23;;;;;;;17.16;100.00;101150.13;5075998;28;20031;-75
2023/06/21 02:53:21;;;;;;;24.60;13.27;;;;;;;17.18;100.00;101154.41;5081025;28;20032;-76
2023/06/21 02:55:47;;;;;;;25.08;13.30;;;;;;;17.16;100.00;101152.81;5072555;28;20028;-76
2023/06/21 02:58:12;;;;;;;23.55;12.85;;;;;;;17.14;100.00;101160.28;5085233;28;20056;-76
2023/06/21 03:00:40;;;;;;;25.02;14.70;;;;;;;17.12;100.00;101166.72;5074389;28;20092;-76
2023/06/21 03:03:06;;;;;;;23.80;13.00;;;;;;;17.12;100.00;101166.72;5075472;28;20044;-75
2023/06/21 03:05:34;;;;;;;23.98;12.68;;;;;;;17.12;100.00;101166.72;5074865;28;20103;-76
2023/06/21 03:08:00;;;;;;;25.83;13.80;;;;;;;17.13;100.00;101181.16;5092280;28;20123;-76
2023/06/21 03:10:26;;;;;;;26.75;14.88;;;;;;;17.10;100.00;101187.75;5096160;28;20020;-76
2023/06/21 03:12:52;;;;;;;24.73;12.80;;;;;;;17.11;100.00;101188.59;5074150;28;20033;-76
2023/06/21 03:15:17;;;;;;;25.63;14.95;;;;;;;17.12;100.00;101188.44;5079539;28;20145;-76
2023/06/21 03:17:43;;;;;;;26.00;14.52;;;;;;;17.12;100.00;101193.03;5092087;28;20032;-76
2023/06/21 03:20:12;;;;;;;26.60;13.20;;;;;;;17.12;100.00;101193.03;5081925;28;20044;-76
2023/06/21 03:22:40;;;;;;;25.17;13.88;;;;;;;17.10;100.00;101201.31;5069076;28;20024;-76
2023/06/21 03:25:06;;;;;;;23.65;13.43;;;;;;;17.11;100.00;101207.59;5087171;28;20020;-76
2023/06/21 03:27:31;;;;;;;25.80;14.30;;;;;;;17.12;100.00;101209.31;5071821;28;20021;-75
2023/06/21 03:29:56;;;;;;;24.58;13.65;;;;;;;17.14;100.00;101209.16;5087402;28;20082;-76
2023/06/21 03:32:22;;;;;;;24.67;13.95;;;;;;;17.14;100.00;101198.31;5075914;28;20054;-76
2023/06/21 03:34:47;;;;;;;25.10;13.20;;;;;;;17.15;100.00;101202.75;5094070;28;20029;-76
2023/06/21 03:37:12;;;;;;;26.55;14.93;;;;;;;17.18;100.00;101199.72;5074451;28;20048;-76
2023/06/21 03:39:38;;;;;;;25.50;14.38;;;;;;;17.20;100.00;101200.44;5076280;28;20384;-76
2023/06/21 03:42:04;;;;;;;24.42;14.63;;;;;;;17.21;100.00;101197.56;5076702;28;20132;-76
2023/06/21 03:44:29;;;;;;;24.00;14.63;;;;;;;17.23;100.00;101195.56;5075495;28;20094;-76
2023/06/21 03:46:55;;;;;;;26.67;15.05;;;;;;;17.26;100.00;101202.53;5074673;28;20047;-76
2023/06/21 03:49:21;;;;;;;26.13;15.35;;;;;;;17.27;100.00;101188.81;5083518;28;20024;-76
2023/06/21 03:51:47;;;;;;;25.58;14.65;;;;;;;17.29;100.00;101194.09;5087761;28;20052;-78
2023/06/21 03:54:13;;;;;;;25.15;14.20;;;;;;;17.31;100.00;101205.69;5100765;28;20036;-76
2023/06/21 03:56:38;;;;;;;26.50;15.25;;;;;;;17.33;100.00;101203.66;5080450;28;20030;-76
2023/06/21 03:59:03;;;;;;;25.50;14.88;;;;;;;17.35;100.00;101200.81;5067482;28;20471;-76
2023/06/21 04:01:29;;;;;;;26.58;15.00;;;;;;;17.37;100.00;101207.81;5070976;28;20104;-76
2023/06/21 04:03:56;;;;;;;26.80;15.30;;;;;;;17.39;100.00;101215.81;5077460;28;20047;-75
2023/06/21 04:06:22;;;;;;;26.70;16.20;;;;;;;17.41;100.00;101222.81;5075520;28;20467;-75
2023/06/21 04:08:47;;;;;;;27.48;14.65;;;;;;;17.42;100.00;101210.06;5069241;28;20055;-75
2023/06/21 04:11:13;;;;;;;27.08;16.63;;;;;;;17.44;100.00;101219.78;5080403;28;20024;-75
2023/06/21 04:13:38;;;;;;;28.27;16.02;;;;;;;17.46;100.00;101223.22;5081225;28;20035;-75
2023/06/21 04:16:04;;;;;;;27.77;15.63;;;;;;;17.48;100.00;101228.50;5079915;28;20021;-76
2023/06/21 04:18:29;;;;;;;26.83;15.80;;;;;;;17.48;100.00;101239.38;5076270;28;20510;-82
2023/06/21 04:20:54;;;;;;;27.77;17.65;;;;;;;17.47;100.00;101235.81;5081525;28;20101;-82
2023/06/21 04:23:20;;;;;;;27.77;15.80;;;;;;;17.51;100.00;101241.81;5089171;28;20095;-81
2023/06/21 04:25:45;;;;;;;25.63;14.90;;;;;;;17.53;100.00;101250.66;5081189;28;20375;-80
2023/06/21 04:28:11;;;;;;;28.35;15.52;;;;;;;17.56;100.00;101246.81;5079182;28;20097;-80
2023/06/21 04:30:36;;;;;;;26.45;15.57;;;;;;;17.57;100.00;101245.78;5081225;28;20028;-79
2023/06/21 04:33:01;;;;;;;26.35;16.35;;;;;;;17.58;100.00;101253.78;5060876;28;20115;-79
2023/06/21 04:35:27;;;;;;;26.10;15.23;;;;;;;17.59;100.00;101251.94;5081676;28;20032;-79
2023/06/21 04:37:52;;;;;;;29.80;16.40;;;;;;;17.62;100.00;101259.78;5054500;28;20048;-80
2023/06/21 04:40:19;;;;;;;24.65;15.40;;;;;;;17.63;100.00;101262.34;5054665;28;20028;-80
2023/06/21 04:42:46;;;;;;;25.90;15.85;;;;;;;17.66;100.00;101263.94;5082289;28;20016;-80
2023/06/21 04:45:15;;;;;;;29.13;18.38;;;;;;;17.68;100.00;101264.63;5078900;28;20024;-80
2023/06/21 04:47:47;;;;;;;27.58;17.48;;;;;;;17.70;100.00;101257.19;5081609;28;20052;-79
2023/06/21 04:50:13;;;;;;;29.27;19.10;;;;;;;17.76;100.00;101261.16;5064350;28;20089;-79
2023/06/21 04:52:38;;;;;;;26.65;17.67;;;;;;;17.81;100.00;101259.69;5077103;28;20028;-81
2023/06/21 04:55:08;;;;;;;30.63;17.90;;;;;;;17.87;100.00;101255.53;5064328;28;20071;-80
2023/06/21 04:57:34;;;;;;;28.33;17.02;;;;;;;17.93;100.00;101251.38;5057569;28;20028;-80
2023/06/21 05:00:06;;;;;;;30.83;18.17;;;;;;;17.97;100.00;101255.53;5071640;28;20024;-80
2023/06/21 05:02:32;;;;;;;28.65;18.10;;;;;;;18.01;100.00;101258.78;5072403;28;20035;-79
2023/06/21 05:04:57;;;;;;;29.48;20.13;;;;;;;18.04;100.00;101269.34;5080277;28;20359;-81
2023/06/21 05:07:22;;;;;;;27.48;17.58;;;;;;;18.05;100.00;101271.91;5064963;28;20024;-80
2023/06/21 05:09:47;;;;;;;29.92;18.08;;;;;;;18.06;100.00;101272.78;5087485;28;20085;-80
2023/06/21 05:12:13;;;;;;;29.80;19.70;;;;;;;18.09;100.00;101280.66;5059288;28;20075;-80
2023/06/21 05:14:38;;;;;;;28.20;19.33;;;;;;;18.13;100.00;101280.19;5061943;28;20492;-81
2023/06/21 05:17:04;;;;;;;36.75;19.77;;;;;;;18.18;100.00;101282.44;5080267;28;20021;-80
2023/06/21 05:19:29;;;;;;;30.95;19.88;;;;;;;18.23;100.00;101290.16;5086758;28;20098;-80
2023/06/21 05:21:54;;;;;;;30.63;19.67;;;;;;;18.27;100.00;101297.00;5065806;28;20066;-80
2023/06/21 05:24:19;;;;;;;30.48;20.20;;;;;;;18.30;100.00;101296.69;5082247;28;20635;-80
2023/06/21 05:26:45;;;;;;;30.85;20.95;;;;;;;18.30;100.00;101304.84;5058640;28;20033;-80
2023/06/21 05:29:11;;;;;;;35.65;21.08;;;;;;;18.31;100.00;101304.72;5067792;28;20131;-80
2023/06/21 05:31:38;;;;;;;30.02;20.90;;;;;;;18.32;100.00;101311.03;5055031;28;20065;-81
2023/06/21 05:34:03;;;;;;;30.90;20.85;;;;;;;18.32;100.00;101294.69;5064630;28;20078;-80
2023/06/21 05:36:28;;;;;;;29.95;20.67;;;;;;;18.31;100.00;101301.13;5068914;28;20063;-81
2023/06/21 05:38:53;;;;;;;33.03;20.60;;;;;;;18.32;100.00;101301.00;5073156;28;20032;-80
2023/06/21 05:41:19;;;;;;;29.15;19.17;;;;;;;18.33;100.00;101299.13;5061279;28;20077;-80
2023/06/21 05:43:44;;;;;;;31.25;19.42;;;;;;;18.35;100.00;101310.72;5073152;28;20027;-81
2023/06/21 05:46:10;;;;;;;30.60;20.17;;;;;;;18.39;100.00;101311.25;5054291;28;20036;-80
2023/06/21 05:48:35;;;;;;;30.17;20.98;;;;;;;18.41;100.00;101304.66;5074320;28;20028;-79
2023/06/21 05:51:00;;;;;;;30.67;20.98;;;;;;;18.45;100.00;101316.97;5050040;28;20077;-79
2023/06/21 05:53:26;;;;;;;33.75;20.80;;;;;;;18.48;100.00;101323.97;5056348;28;20070;-81
2023/06/21 05:55:54;;;;;;;28.23;19.70;;;;;;;18.50;100.00;101320.06;5060454;28;20024;-80
2023/06/21 05:58:20;;;;;;;30.42;19.20;;;;;;;18.52;100.00;101331.66;5049860;28;20153;-79
2023/06/21 06:00:46;;;;;;;35.55;20.02;;;;;;;18.54;100.00;101336.97;5062009;28;20566;-79
2023/06/21 06:03:11;;;;;;;31.45;19.50;;;;;;;18.56;100.00;101345.81;5050451;28;20197;-79
2023/06/21 06:05:36;;;;;;;32.95;20.50;;;;;;;18.61;100.00;101345.34;5056021;28;20137;-78
2023/06/21 06:08:02;;;;;;;32.70;21.30;;;;;;;18.62;100.00;101344.34;5070738;28;20023;-79
2023/06/21 06:10:27;;;;;;;31.52;20.30;;;;;;;18.66;100.00;101343.88;5072072;28;20067;-79
2023/06/21 06:12:53;;;;;;;30.98;20.27;;;;;;;18.70;100.00;101349.91;5059971;28;20021;-79
2023/06/21 06:15:18;;;;;;;29.90;19.92;;;;;;;18.71;100.00;101348.88;5074951;28;20118;-78
2023/06/21 06:17:43;;;;;;;28.23;19.13;;;;;;;18.75;100.00;101346.72;5051920;28;20024;-78
2023/06/21 06:20:09;;;;;;;32.08;19.25;;;;;;;18.71;100.00;101348.88;5075845;28;20448;-78
2023/06/21 06:22:35;;;;;;;31.48;18.65;;;;;;;18.73;100.00;101349.59;5067047;28;20040;-78
2023/06/21 06:25:00;;;;;;;29.10;19.00;;;;;;;18.73;100.00;101351.44;5056387;28;20024;-79
2023/06/21 06:27:26;;;;;;;29.05;18.52;;;;;;;18.77;100.00;101351.00;5045746;28;20039;-78
2023/06/21 06:29:51;;;;;;;27.08;16.45;;;;;;;18.79;100.00;101359.00;5063645;28;20031;-78
2023/06/21 06:32:16;;;;;;;27.80;17.27;;;;;;;18.84;100.00;101368.44;5053855;28;20024;-78
2023/06/21 06:34:41;;;;;;;29.65;16.35;;;;;;;18.87;100.00;101370.00;5060170;28;20380;-78
2023/06/21 06:37:07;;;;;;;26.98;14.85;;;;;;;18.90;100.00;101380.59;5057322;28;20603;-78
2023/06/21 06:39:32;;;;;;;24.05;13.05;;;;;;;18.92;100.00;101377.72;5071451;28;20438;-79
2023/06/21 06:41:57;;;;;;;25.42;13.35;;;;;;;18.94;100.00;101378.44;5057666;28;20021;-78
2023/06/21 06:44:23;;;;;;;26.40;13.38;;;;;;;18.97;100.00;101386.28;5049987;28;20028;-78
2023/06/21 06:46:48;;;;;;;25.52;13.18;;;;;;;19.02;100.00;101395.72;5053729;28;20020;-79
2023/06/21 06:49:13;;;;;;;23.27;12.07;;;;;;;19.06;100.00;101400.84;5057370;28;20020;-79
2023/06/21 06:51:42;;;;;;;23.20;10.93;;;;;;;19.07;100.00;101400.69;5061797;28;20111;-79
2023/06/21 06:54:08;;;;;;;25.25;12.43;;;;;;;19.10;100.00;101411.28;5073642;28;20121;-79
2023/06/21 06:56:33;;;;;;;22.67;11.55;;;;;;;19.04;100.00;101422.81;5071236;28;20107;-79
2023/06/21 06:58:58;;;;;;;22.10;11.60;;;;;;;19.03;100.00;101429.25;5067336;28;20051;-79
2023/06/21 07:01:27;;;;;;;22.73;11.27;;;;;;;19.01;100.00;101421.22;5077201;28;20024;-78
2023/06/21 07:03:52;;;;;;;21.85;10.38;;;;;;;19.03;100.00;101419.22;5080163;28;20052;-80
2023/06/21 07:06:17;;;;;;;22.77;11.18;;;;;;;19.08;100.00;101424.22;5060604;28;20504;-80
2023/06/21 07:08:44;;;;;;;25.90;11.05;;;;;;;19.12;100.00;101425.63;5058758;28;20021;-78
2023/06/21 07:11:10;;;;;;;25.25;13.02;;;;;;;19.20;100.00;101414.78;5083366;28;20040;-80
2023/06/21 07:13:35;;;;;;;23.27;12.82;;;;;;;19.24;100.00;101414.47;5080056;28;20413;-80
2023/06/21 07:16:00;;;;;;;23.55;12.82;;;;;;;19.31;100.00;101424.63;5078478;28;20413;-81
2023/06/21 07:18:26;;;;;;;24.88;13.35;;;;;;;19.38;100.00;101416.66;5055825;28;20024;-77
2023/06/21 07:20:51;;;;;;;26.00;15.57;;;;;;;19.42;100.00;101418.06;5074687;28;20055;-78
2023/06/21 07:23:16;;;;;;;26.08;14.68;;;;;;;19.47;100.00;101423.88;5086268;28;20062;-80
2023/06/21 07:25:42;;;;;;;23.98;13.48;;;;;;;19.50;100.00;101420.88;5052773;28;20025;-79
2023/06/21 07:28:07;;;;;;;28.48;16.30;;;;;;;19.55;100.00;101423.13;5071281;28;20030;-79
2023/06/21 07:30:33;;;;;;;26.40;14.60;;;;;;;19.61;100.00;101427.09;5076762;28;20034;-79
2023/06/21 07:32:58;;;;;;;25.67;14.95;;;;;;;19.65;100.00;101425.72;5066228;28;20031;-80
2023/06/21 07:35:23;;;;;;;25.58;14.30;;;;;;;19.71;100.00;101422.38;5073140;28;20498;-79
2023/06/21 07:37:48;;;;;;;23.95;12.70;;;;;;;19.77;100.00;101424.47;5048885;28;20024;-78
2023/06/21 07:40:14;;;;;;;24.65;13.88;;;;;;;19.83;100.00;101426.59;5060778;28;20043;-79
2023/06/21 07:42:39;;;;;;;27.42;14.63;;;;;;;19.90;100.00;101432.28;5082045;28;20047;-79
2023/06/21 07:45:06;;;;;;;24.92;13.07;;;;;;;19.97;100.00;101436.09;5079769;28;20104;-77
2023/06/21 07:47:31;;;;;;;23.55;13.35;;;;;;;20.03;100.00;101440.03;5064145;28;20386;-79
2023/06/21 07:49:57;;;;;;;24.35;14.30;;;;;;;20.08;100.00;101437.69;5074510;28;20032;-78
2023/06/21 07:52:22;;;;;;;23.98;13.95;;;;;;;20.13;100.00;101443.50;5073646;28;20484;-78
2023/06/21 07:54:49;;;;;;;26.17;15.68;;;;;;;20.15;100.00;101440.63;5063518;28;20120;-79
2023/06/21 07:57:16;;;;;;;24.02;14.48;;;;;;;20.17;99.96;101444.88;5052008;28;20024;-78
2023/06/21 07:59:41;;;;;;;26.25;14.95;;;;;;;20.23;100.00;101437.94;5063067;28;20040;-78
2023/06/21 08:02:06;;;;;;;29.48;14.32;;;;;;;20.28;100.00;101448.38;5064953;28;20032;-78
2023/06/21 08:04:32;;;;;;;26.73;13.80;;;;;;;20.28;100.00;101446.50;5064608;28;20036;-77
2023/06/21 08:06:57;;;;;;;25.05;13.65;;;;;;;20.33;100.00;101455.06;5079407;28;20021;-78
2023/06/21 08:09:22;;;;;;;23.73;13.38;;;;;;;20.37;98.02;101458.34;5061457;28;20063;-76
2023/06/21 08:11:47;;;;;;;23.67;11.85;;;;;;;20.38;97.40;101466.34;5084928;28;20024;-78
2023/06/21 08:14:13;;;;;;;23.85;10.60;;;;;;;20.40;93.86;101467.03;5064796;28;20246;-78
2023/06/21 08:16:38;;;;;;;21.88;8.38;;;;;;;20.39;88.93;101462.59;5065685;28;20028;-78
2023/06/21 08:19:04;;;;;;;22.05;11.07;;;;;;;20.46;94.05;101460.06;5078756;28;20463;-78
2023/06/21 08:21:29;;;;;;;22.92;11.43;;;;;;;20.48;94.41;101465.38;5086905;28;20055;-77
2023/06/21 08:23:54;;;;;;;22.52;11.73;;;;;;;20.48;93.42;101465.38;5072767;28;20060;-77
2023/06/21 08:26:20;;;;;;;21.83;10.80;;;;;;;20.54;94.19;101464.72;5072390;28;20523;-77
2023/06/21 08:28:45;;;;;;;21.83;10.05;;;;;;;20.57;94.45;101461.66;5082599;28;20048;-77
2023/06/21 08:31:11;;;;;;;20.20;8.68;;;;;;;20.60;93.33;101475.84;5079288;28;20027;-77
2023/06/21 08:33:36;;;;;;;20.00;8.68;;;;;;;20.66;89.49;101465.28;5064282;28;20038;-76
2023/06/21 08:36:02;;;;;;;19.02;8.07;;;;;;;20.69;91.33;101464.97;5077864;28;20035;-77
2023/06/21 08:38:27;;;;;;;23.38;9.43;;;;;;;20.72;92.32;101461.94;5070153;28;20032;-77
2023/06/21 08:40:57;;;;;;;22.33;11.02;;;;;;;20.77;93.04;101467.75;5088639;28;20028;-77
2023/06/21 08:43:22;;;;;;;23.73;11.00;;;;;;;20.86;95.51;101463.19;5074808;28;20645;-77
2023/06/21 08:45:48;;;;;;;21.17;9.85;;;;;;;20.88;92.31;101459.28;5084936;28;20083;-77
2023/06/21 08:48:17;;;;;;;21.88;9.43;;;;;;;20.93;90.70;101469.69;5090645;28;20777;-77
2023/06/21 08:50:43;;;;;;;21.02;10.13;;;;;;;20.98;89.41;101464.56;5069181;28;20024;-77
2023/06/21 08:53:12;;;;;;;21.65;10.80;;;;;;;21.02;89.62;101473.31;5077618;28;20047;-77
2023/06/21 08:55:40;;;;;;;23.58;10.93;;;;;;;21.06;91.28;101471.97;5090985;28;20028;-76
2023/06/21 08:58:20;;;;;;;21.90;10.05;;;;;;;21.11;88.64;101475.03;5092594;28;20080;-77
2023/06/21 09:00:51;;;;;;;20.88;8.52;;;;;;;21.17;89.65;101477.09;5091215;28;20472;-75
2023/06/21 09:03:27;;;;;;;19.45;7.80;;;;;;;21.24;84.66;101475.41;5093659;28;20072;-76
2023/06/21 09:06:03;;;;;;;19.23;7.40;;;;;;;21.24;80.56;101480.03;5088078;28;20024;-77
2023/06/21 09:08:30;;;;;;;18.20;7.05;;;;;;;21.26;81.05;101480.72;5074412;28;20111;-76
2023/06/21 09:10:57;;;;;;;16.75;6.25;;;;;;;21.31;82.60;101481.06;5079051;28;20048;-77
2023/06/21 09:13:24;;;;;;;18.70;6.93;;;;;;;21.30;83.13;101480.22;5085907;28;20035;-77
2023/06/21 09:15:51;;;;;;;16.25;5.47;;;;;;;21.37;80.20;101485.00;5065892;28;20028;-77
2023/06/21 09:18:18;;;;;;;15.85;6.03;;;;;;;21.39;79.38;101482.97;5072232;28;20032;-79
2023/06/21 09:20:47;;;;;;;15.50;5.28;;;;;;;21.42;77.40;101488.09;5093251;28;20104;-78
2023/06/21 09:23:12;;;;;;;17.02;5.32;;;;;;;21.52;78.01;101493.44;5078117;28;20054;-78
2023/06/21 09:25:37;;;;;;;16.42;5.70;;;;;;;21.57;77.50;101494.66;5072195;28;20745;-76
2023/06/21 09:28:03;;;;;;;17.35;6.30;;;;;;;21.59;76.95;101492.59;5081742;28;20025;-76
2023/06/21 09:30:29;;;;;;;18.02;6.50;;;;;;;21.62;77.15;101489.50;5064566;28;20080;-78
2023/06/21 09:32:54;;;;;;;16.38;6.25;;;;;;;21.66;78.48;101490.03;5086830;28;20724;-79
2023/06/21 09:35:20;;;;;;;17.60;6.18;;;;;;;21.69;79.45;101494.31;5078377;28;20042;-80
2023/06/21 09:37:45;;;;;;;19.15;7.30;;;;;;;21.76;76.77;101498.94;5078211;28;20016;-79
2023/06/21 09:40:12;;;;;;;14.02;5.43;;;;;;;21.79;73.29;101500.47;5076318;28;20478;-81
2023/06/21 09:42:41;;;;;;;15.02;5.03;;;;;;;21.88;74.22;101506.81;5083439;28;20395;-78
2023/06/21 09:45:11;;;;;;;13.90;5.05;;;;;;;21.88;73.63;101510.41;5072511;28;20024;-81
2023/06/21 09:47:39;;;;;;;15.20;5.60;;;;;;;21.94;77.30;101506.97;5087243;28;20015;-81
2023/06/21 09:50:06;;;;;;;15.88;6.13;;;;;;;21.97;74.70;101498.41;5073430;28;20028;-81
2023/06/21 09:52:31;;;;;;;16.98;6.63;;;;;;;21.97;76.55;101498.41;5071658;28;20068;-82
2023/06/21 09:54:57;;;;;;;15.80;5.70;;;;;;;22.04;76.27;101504.06;5074341;28;20459;-81
2023/06/21 09:57:30;;;;;;;14.23;5.00;;;;;;;22.09;75.89;101501.66;5081633;28;20487;-82
2023/06/21 09:59:56;;;;;;;14.65;4.93;;;;;;;22.08;71.62;101502.69;5055575;28;20085;-81
2023/06/21 10:02:21;;;;;;;14.40;4.95;;;;;;;22.15;70.07;101511.06;5072034;28;20429;-81
2023/06/21 10:04:47;;;;;;;13.45;4.93;;;;;;;22.17;70.62;101509.03;5058216;28;20021;-82
2023/06/21 10:07:14;;;;;;;14.77;5.28;;;;;;;22.15;70.80;101508.31;5053672;28;20025;-81
2023/06/21 10:09:41;;;;;;;18.17;6.05;;;;;;;22.16;72.21;101512.78;5086457;28;20077;-82
2023/06/21 10:12:11;;;;;;;17.95;6.53;;;;;;;22.18;73.97;101521.66;5092555;28;20530;-80
2023/06/21 10:14:39;;;;;;;19.15;6.85;;;;;;;22.17;75.53;101525.44;5089720;28;20446;-81
2023/06/21 10:17:05;;;;;;;19.90;7.82;;;;;;;22.17;76.16;101531.75;5081433;28;20028;-82
2023/06/21 10:19:32;;;;;;;19.05;7.95;;;;;;;22.11;74.39;101528.84;5075237;28;20024;-80
2023/06/21 10:22:01;;;;;;;18.40;7.90;;;;;;;22.18;74.75;101527.13;5084381;28;20029;-80
2023/06/21 10:24:35;;;;;;;19.35;7.53;;;;;;;22.16;75.33;101535.53;5084634;28;20021;-78
2023/06/21 10:27:02;;;;;;;20.25;6.35;;;;;;;22.27;75.31;101536.19;5088959;28;20463;-77
2023/06/21 10:29:31;;;;;;;12.65;4.18;;;;;;;22.30;68.12;101539.47;5061609;28;20028;-78
2023/06/21 10:31:59;;;;;;;13.93;4.57;;;;;;;22.36;67.96;101542.56;5090742;28;20035;-78
2023/06/21 10:34:27;;;;;;;15.82;5.95;;;;;;;22.40;70.83;101541.19;5091946;28;20176;-78
2023/06/21 10:36:59;;;;;;;16.90;6.07;;;;;;;22.42;68.83;101550.09;5068268;28;20016;-77
2023/06/21 10:39:26;;;;;;;17.58;7.50;;;;;;;22.36;69.36;101545.28;5084510;28;20329;-77
2023/06/21 10:41:51;;;;;;;20.48;7.57;;;;;;;22.32;71.03;101550.28;5092512;28;20047;-78
2023/06/21 10:44:18;;;;;;;18.90;7.53;;;;;;;22.32;68.56;101555.75;5072585;28;20036;-78
2023/06/21 10:46:45;;;;;;;18.02;7.13;;;;;;;22.43;67.13;101554.53;5071220;28;20027;-78
2023/06/21 10:49:11;;;;;;;18.27;8.48;;;;;;;22.55;71.25;101555.88;5063043;28;20024;-78
2023/06/21 10:51:40;;;;;;;19.60;9.77;;;;;;;22.56;68.90;101562.22;5073375;28;20029;-79
2023/06/21 10:54:06;;;;;;;18.90;8.73;;;;;;;22.62;71.27;101548.69;5084615;28;20020;-76
2023/06/21 10:56:33;;;;;;;19.85;8.57;;;;;;;22.69;68.83;101557.91;5070472;28;20039;-75
2023/06/21 10:58:58;;;;;;;20.88;9.40;;;;;;;22.66;70.22;101546.44;5078194;28;20074;-75
2023/06/21 11:01:23;;;;;;;19.25;8.00;;;;;;;22.66;68.31;101555.50;5084813;28;20028;-74